Time;durP1;ratioP1;P1;durP2;ratioP2;P2;SDS_P1;SDS_P2;PMS_P1;PMS_P2;Temp;Humidity;BMP_temperature;BMP_pressure;BME280_temperature;BME280_humidity;BME280_pressure;Samples;Min_cycle;Max_cycle;Signal;HPM_P1;HPM_P2
2022/10/24 00:02:17;;;;;;;14.93;10.35;;;;;;;17.45;62.95;100047.37;7709756;32;40184;-74
2022/10/24 00:06:33;;;;;;;17.58;10.85;;;;;;;17.27;63.23;100044.47;7710009;32;39895;-73
2022/10/24 00:10:49;;;;;;;16.90;10.40;;;;;;;17.32;63.01;100053.75;7709673;32;37998;-74
2022/10/24 00:15:06;;;;;;;18.33;11.43;;;;;;;17.21;63.34;100055.91;7709599;32;37258;-73
2022/10/24 00:19:22;;;;;;;17.73;10.80;;;;;;;17.19;63.44;100063.66;7709481;32;39855;-73
2022/10/24 00:23:39;;;;;;;18.55;11.15;;;;;;;17.24;63.51;100069.06;7708394;32;40153;-73
2022/10/24 00:27:55;;;;;;;16.35;11.20;;;;;;;17.20;64.44;100057.84;7708456;32;37908;-74
2022/10/24 00:32:11;;;;;;;16.27;10.18;;;;;;;17.59;62.60;100048.16;7709235;32;37374;-72
2022/10/24 00:36:27;;;;;;;16.40;10.93;;;;;;;17.12;63.79;100046.75;7709186;32;39274;-73
2022/10/24 00:40:44;;;;;;;17.35;11.63;;;;;;;17.45;62.95;100045.44;7709014;32;40814;-73
2022/10/24 00:45:20;;;;;;;17.95;11.68;;;;;;;17.41;63.08;100040.84;7708980;32;37950;-73
2022/10/24 00:49:51;;;;;;;19.33;12.07;;;;;;;17.25;63.47;100043.97;7684600;32;37929;-73
2022/10/24 00:54:10;;;;;;;20.23;13.05;;;;;;;16.99;64.60;100038.22;7708578;32;40194;-73
2022/10/24 00:58:28;;;;;;;18.52;12.15;;;;;;;16.98;64.68;100035.75;7708605;32;39616;-73
2022/10/24 01:02:45;;;;;;;20.98;13.48;;;;;;;17.11;64.10;100032.19;7708314;32;36947;-72
2022/10/24 01:07:38;;;;;;;19.98;12.68;;;;;;;16.64;65.77;100018.53;7711874;32;37530;-73
2022/10/24 01:12:18;;;;;;;23.70;13.60;;;;;;;16.61;65.81;100029.31;7666253;32;40457;-73
2022/10/24 01:16:47;;;;;;;20.55;12.85;;;;;;;16.71;65.22;100023.63;7685757;32;39716;-74
2022/10/24 01:21:32;;;;;;;21.35;13.68;;;;;;;16.65;65.24;100022.09;7685541;32;38708;-74
2022/10/24 01:26:20;;;;;;;21.45;13.82;;;;;;;16.80;64.74;100019.03;7684552;32;38031;-73
2022/10/24 01:31:02;;;;;;;21.33;13.27;;;;;;;16.74;64.99;100025.75;7699974;32;39220;-74
2022/10/24 01:35:39;;;;;;;21.58;12.85;;;;;;;16.35;66.13;100043.63;7712214;32;40741;-74
2022/10/24 01:39:59;;;;;;;21.37;13.90;;;;;;;16.85;64.51;100031.88;7712116;32;38868;-74
2022/10/24 01:44:26;;;;;;;21.62;13.93;;;;;;;16.93;64.15;100033.13;7698700;32;37142;-73
2022/10/24 01:48:50;;;;;;;21.00;13.07;;;;;;;16.77;64.58;100033.41;7698884;32;39067;-74
2022/10/24 01:53:07;;;;;;;26.50;14.38;;;;;;;16.70;64.80;100042.06;7712011;32;39716;-74
2022/10/24 01:57:32;;;;;;;23.23;14.23;;;;;;;16.72;64.98;100047.28;7697115;32;38073;-73
2022/10/24 02:01:48;;;;;;;24.87;15.07;;;;;;;16.73;64.72;100026.06;7711883;32;36295;-74
2022/10/24 02:06:19;;;;;;;23.20;13.15;;;;;;;16.32;66.01;100033.22;7711900;32;39502;-74
2022/10/24 02:10:43;;;;;;;25.92;15.00;;;;;;;16.33;66.18;100023.81;7699438;32;39947;-74
2022/10/24 02:15:14;;;;;;;23.87;15.18;;;;;;;16.33;65.97;100023.81;7697657;32;38109;-74
2022/10/24 02:19:31;;;;;;;27.30;15.55;;;;;;;16.40;65.67;100013.25;7698833;32;36828;-74
2022/10/24 02:24:05;;;;;;;24.77;14.60;;;;;;;16.25;66.16;100005.28;7685598;32;39343;-73
2022/10/24 02:28:24;;;;;;;26.30;16.05;;;;;;;16.13;66.47;100001.09;7710781;32;40100;-74
2022/10/24 02:32:44;;;;;;;23.50;14.95;;;;;;;16.09;66.70;99993.75;7709862;32;38826;-74
2022/10/24 02:37:03;;;;;;;23.38;14.48;;;;;;;16.06;66.10;99992.44;7710450;32;38012;-73
2022/10/24 02:41:26;;;;;;;24.33;15.90;;;;;;;16.00;66.75;99982.62;7710887;32;39354;-73
2022/10/24 02:45:43;;;;;;;25.02;16.12;;;;;;;15.34;69.03;99990.88;7710515;32;40085;-73
2022/10/24 02:49:59;;;;;;;25.25;14.75;;;;;;;15.66;67.75;99989.28;7710551;32;38101;-73
2022/10/24 02:54:15;;;;;;;23.15;15.25;;;;;;;15.85;67.02;99982.91;7710483;32;37208;-73
2022/10/24 02:58:32;;;;;;;23.15;14.50;;;;;;;15.74;67.00;99985.81;7709943;32;39405;-73
2022/10/24 03:02:48;;;;;;;25.80;15.30;;;;;;;15.89;66.78;99982.00;7711116;32;40077;-73
2022/10/24 03:07:06;;;;;;;27.20;16.83;;;;;;;15.55;67.87;99972.13;7710717;32;38534;-73
2022/10/24 03:11:22;;;;;;;30.20;15.95;;;;;;;15.83;66.67;99971.41;7710602;32;37163;-73
2022/10/24 03:15:38;;;;;;;30.35;17.08;;;;;;;15.44;68.00;99981.66;7696752;32;39008;-73
2022/10/24 03:19:54;;;;;;;29.12;17.12;;;;;;;15.46;67.91;99975.88;7709118;32;39697;-73
2022/10/24 03:24:11;;;;;;;32.67;17.30;;;;;;;15.46;67.88;99984.09;7710860;32;38797;-74
2022/10/24 03:28:27;;;;;;;28.55;17.45;;;;;;;15.71;67.08;99978.19;7710374;32;37270;-73
2022/10/24 03:32:43;;;;;;;29.65;17.33;;;;;;;15.61;67.57;99964.63;7710691;32;40078;-73
2022/10/24 03:36:59;;;;;;;30.70;17.55;;;;;;;15.49;67.86;99972.53;7710661;32;40854;-73
2022/10/24 03:41:16;;;;;;;32.15;18.20;;;;;;;15.45;67.91;99974.22;7710521;32;38802;-73
2022/10/24 03:45:32;;;;;;;30.08;18.20;;;;;;;15.29;68.48;99971.72;7710591;32;36918;-73
2022/10/24 03:49:48;;;;;;;33.33;18.60;;;;;;;14.84;70.02;99985.03;7710375;32;39039;-73
2022/10/24 03:54:05;;;;;;;34.83;18.30;;;;;;;15.24;68.57;99987.47;7709093;32;40036;-73
2022/10/24 03:58:21;;;;;;;31.33;19.08;;;;;;;15.24;68.70;99988.28;7710124;32;37934;-72
2022/10/24 04:02:37;;;;;;;39.40;18.98;;;;;;;15.08;68.94;99995.13;7709990;32;38147;-73
2022/10/24 04:06:59;;;;;;;30.88;17.90;;;;;;;15.24;68.52;100004.75;7709966;32;40263;-74
2022/10/24 04:11:15;;;;;;;31.75;18.05;;;;;;;15.05;69.47;100006.69;7709749;32;40884;-74
2022/10/24 04:15:31;;;;;;;29.23;17.37;;;;;;;15.26;68.60;100008.00;7709842;32;38090;-72
2022/10/24 04:19:47;;;;;;;34.35;18.80;;;;;;;15.24;68.56;99993.78;7709599;32;37177;-73
2022/10/24 04:24:06;;;;;;;32.08;17.23;;;;;;;15.12;68.92;99985.16;7709569;32;40169;-73
2022/10/24 04:28:23;;;;;;;31.37;17.50;;;;;;;15.03;68.78;99980.34;7709299;32;40233;-73
2022/10/24 04:32:39;;;;;;;34.05;17.67;;;;;;;15.12;68.29;99974.19;7709240;32;38915;-71
2022/10/24 04:36:55;;;;;;;33.40;16.60;;;;;;;15.03;69.93;99974.03;7709341;32;37152;-73
2022/10/24 04:41:11;;;;;;;33.10;17.37;;;;;;;15.03;69.43;99966.62;7712189;32;39324;-74
2022/10/24 04:45:27;;;;;;;33.72;18.58;;;;;;;15.10;69.69;99959.94;7712741;32;40118;-74
2022/10/24 04:49:43;;;;;;;28.50;17.75;;;;;;;15.06;68.96;99953.44;7712568;32;38761;-74
2022/10/24 04:54:00;;;;;;;30.67;17.40;;;;;;;15.15;68.47;99951.62;7698954;32;38061;-73
2022/10/24 04:58:16;;;;;;;34.53;19.48;;;;;;;15.17;68.43;99965.88;7712743;32;40072;-74
2022/10/24 05:02:32;;;;;;;34.28;18.60;;;;;;;15.14;68.57;99985.69;7712551;32;40516;-74
2022/10/24 05:06:49;;;;;;;36.42;18.58;;;;;;;14.96;69.09;99990.88;7712519;32;37891;-74
2022/10/24 05:11:05;;;;;;;31.73;17.48;;;;;;;14.99;68.88;100004.03;7712545;32;37195;-73
2022/10/24 05:15:21;;;;;;;39.33;20.30;;;;;;;14.98;69.81;99994.13;7712554;32;39296;-72
2022/10/24 05:19:37;;;;;;;37.40;18.02;;;;;;;15.08;68.81;100001.44;7712115;32;39719;-73
2022/10/24 05:23:53;;;;;;;37.22;19.33;;;;;;;15.16;68.04;100022.72;7712007;32;38096;-73
2022/10/24 05:28:09;;;;;;;33.15;18.40;;;;;;;15.39;67.27;100056.72;7711937;32;38244;-72
2022/10/24 05:32:26;;;;;;;39.15;19.17;;;;;;;15.18;68.25;100060.87;7712072;32;39559;-74
2022/10/24 05:36:42;;;;;;;31.37;18.48;;;;;;;15.39;67.29;100062.22;7712021;32;40481;-74
2022/10/24 05:40:58;;;;;;;35.22;18.40;;;;;;;15.68;66.13;100057.69;7711875;32;38559;-74
2022/10/24 05:45:14;;;;;;;35.25;18.02;;;;;;;15.71;65.88;100055.16;7711945;32;36960;-73
2022/10/24 05:49:31;;;;;;;29.48;16.67;;;;;;;15.49;66.69;100053.00;7698190;32;40196;-74
2022/10/24 05:53:47;;;;;;;36.53;19.30;;;;;;;15.42;66.79;100040.75;7711775;32;40861;-73
2022/10/24 05:58:03;;;;;;;41.88;21.55;;;;;;;15.29;67.13;100034.91;7711521;32;38015;-73
2022/10/24 06:02:20;;;;;;;38.67;21.02;;;;;;;14.82;68.97;100069.59;7711742;32;37988;-73
2022/10/24 06:06:42;;;;;;;37.83;18.37;;;;;;;15.14;67.89;100070.81;7711595;32;40152;-74
2022/10/24 06:10:58;;;;;;;35.38;18.23;;;;;;;15.02;68.03;100074.81;7711719;32;39847;-74
2022/10/24 06:15:14;;;;;;;35.97;17.33;;;;;;;15.17;67.72;100070.22;7711624;32;39140;-74
2022/10/24 06:19:31;;;;;;;36.33;17.48;;;;;;;15.15;67.62;100072.44;7711621;32;36925;-74
2022/10/24 06:23:47;;;;;;;35.35;18.83;;;;;;;15.16;67.72;100065.84;7711650;32;39313;-73
2022/10/24 06:28:03;;;;;;;38.60;18.92;;;;;;;15.45;66.72;100057.44;7711352;32;40782;-73
2022/10/24 06:32:19;;;;;;;34.20;17.40;;;;;;;15.17;67.79;100051.00;7711079;32;38006;-73
2022/10/24 06:36:36;;;;;;;39.75;17.95;;;;;;;15.18;67.73;100061.69;7709452;32;37993;-73
2022/10/24 06:40:52;;;;;;;36.67;18.17;;;;;;;14.81;69.53;100062.44;7709615;32;40315;-74
2022/10/24 06:45:09;;;;;;;33.60;17.75;;;;;;;15.07;68.79;100045.66;7709948;32;39882;-74
2022/10/24 06:49:25;;;;;;;38.30;19.23;;;;;;;15.13;68.30;100039.78;7710469;32;38758;-72
2022/10/24 06:53:41;;;;;;;32.58;18.83;;;;;;;15.09;68.62;100037.94;7711227;32;37504;-73
2022/10/24 06:57:57;;;;;;;33.55;17.58;;;;;;;15.12;68.42;100048.31;7711242;32;39458;-73
2022/10/24 07:02:15;;;;;;;34.33;17.52;;;;;;;15.23;68.35;100036.09;7710554;32;40884;-73
2022/10/24 07:06:32;;;;;;;34.45;18.10;;;;;;;14.85;69.72;100052.53;7711081;32;38088;-73
2022/10/24 07:10:48;;;;;;;35.92;17.90;;;;;;;15.18;68.31;100060.87;7711025;32;37224;-73
2022/10/24 07:15:04;;;;;;;36.58;18.40;;;;;;;15.17;69.08;100067.47;7711015;32;40100;-73
2022/10/24 07:19:21;;;;;;;32.38;18.05;;;;;;;15.13;69.24;100083.72;7710939;32;40735;-74
2022/10/24 07:23:37;;;;;;;30.77;16.83;;;;;;;15.13;68.81;100085.66;7710371;32;37820;-73
2022/10/24 07:27:54;;;;;;;32.30;17.77;;;;;;;15.11;68.67;100096.09;7710567;32;38034;-73
2022/10/24 07:32:10;;;;;;;35.50;19.25;;;;;;;15.15;68.56;100099.91;7710620;32;39810;-73
2022/10/24 07:36:29;;;;;;;37.60;18.30;;;;;;;15.30;68.28;100099.72;7710616;32;40828;-73
2022/10/24 07:40:46;;;;;;;44.50;19.70;;;;;;;15.05;69.37;100072.59;7709170;32;36973;-73
2022/10/24 07:45:03;;;;;;;37.65;18.95;;;;;;;14.99;70.06;100071.84;7709964;32;37763;-74
2022/10/24 07:49:19;;;;;;;37.22;18.17;;;;;;;15.29;68.81;100039.56;7709908;32;39312;-73
2022/10/24 07:53:36;;;;;;;37.17;18.55;;;;;;;15.00;70.50;100024.03;7709718;32;39942;-75
2022/10/24 07:57:52;;;;;;;37.00;18.65;;;;;;;15.12;70.45;100024.41;7710137;32;38867;-74
2022/10/24 08:02:10;;;;;;;39.33;19.75;;;;;;;15.23;69.97;100021.53;7709747;32;38001;-74
2022/10/24 08:06:30;;;;;;;41.60;18.30;;;;;;;15.32;69.77;100023.31;7696577;32;38154;-74
2022/10/24 08:10:46;;;;;;;44.22;19.00;;;;;;;15.01;69.99;100044.91;7709884;32;39701;-74
2022/10/24 08:15:03;;;;;;;41.78;19.23;;;;;;;15.17;69.41;100037.28;7711620;32;37727;-74
2022/10/24 08:19:19;;;;;;;45.70;19.05;;;;;;;15.09;69.04;100040.69;7713062;32;37388;-73
2022/10/24 08:23:37;;;;;;;46.13;19.55;;;;;;;15.49;68.05;100043.97;7713160;32;39527;-74
2022/10/24 08:27:54;;;;;;;43.28;20.42;;;;;;;15.52;67.86;100048.84;7712298;32;39153;-74
2022/10/24 08:32:10;;;;;;;52.00;20.12;;;;;;;15.43;67.94;100050.63;7711685;32;37832;-74
2022/10/24 08:36:29;;;;;;;47.92;21.92;;;;;;;15.70;67.07;100050.75;7711669;32;37769;-73
2022/10/24 08:40:50;;;;;;;55.63;23.58;;;;;;;15.78;66.74;100046.56;7711719;32;40144;-74
2022/10/24 08:45:36;;;;;;;48.40;20.85;;;;;;;15.53;67.76;100044.97;7705924;32;39620;-74
2022/10/24 08:49:54;;;;;;;44.92;20.92;;;;;;;16.14;65.60;100048.66;7710749;32;39047;-74
2022/10/24 08:54:18;;;;;;;43.00;19.95;;;;;;;16.31;65.13;100046.12;7682456;32;37057;-74
2022/10/24 08:58:43;;;;;;;49.38;21.52;;;;;;;16.40;64.72;100046.28;7684064;32;39367;-73
2022/10/24 09:03:17;;;;;;;47.85;21.48;;;;;;;16.44;64.71;100044.53;7683859;32;40758;-73
2022/10/24 09:07:55;;;;;;;42.38;20.85;;;;;;;16.28;65.50;100048.69;7684892;32;38975;-74
2022/10/24 09:12:14;;;;;;;46.05;20.33;;;;;;;16.28;65.48;100054.19;7670578;32;37272;-73
2022/10/24 09:16:30;;;;;;;45.50;20.55;;;;;;;16.30;65.60;100054.72;7684046;32;39905;-73
2022/10/24 09:20:47;;;;;;;49.65;21.50;;;;;;;16.71;64.05;100062.16;7683805;32;39708;-74
2022/10/24 09:25:24;;;;;;;42.53;20.58;;;;;;;16.18;65.49;100065.38;7669764;32;38760;-74
2022/10/24 09:29:40;;;;;;;48.50;21.27;;;;;;;16.26;65.60;100065.47;7701228;32;20638;-74
2022/10/24 09:33:59;;;;;;;44.92;20.20;;;;;;;16.74;63.93;100072.56;7711103;32;39941;-74
2022/10/24 09:38:32;;;;;;;41.15;19.45;;;;;;;16.88;63.30;100069.81;7712147;32;39835;-75
2022/10/24 09:43:00;;;;;;;43.97;19.80;;;;;;;16.58;64.05;100066.56;7711419;32;37743;-73
2022/10/24 09:47:28;;;;;;;36.55;18.35;;;;;;;16.65;64.67;100068.91;7711716;32;37124;-74
2022/10/24 09:51:59;;;;;;;43.55;19.27;;;;;;;16.50;65.09;100079.06;7710319;32;40045;-75
2022/10/24 09:56:15;;;;;;;37.50;19.45;;;;;;;16.87;64.48;100077.28;7711116;32;39996;-74
2022/10/24 10:00:35;;;;;;;33.63;17.08;;;;;;;17.00;63.73;100069.31;7711793;32;38891;-74
2022/10/24 10:05:03;;;;;;;34.38;17.12;;;;;;;17.16;62.38;100056.03;7709564;32;37306;-74
2022/10/24 10:09:36;;;;;;;32.08;16.52;;;;;;;17.17;63.12;100043.87;7711516;32;39461;-74
2022/10/24 10:13:54;;;;;;;28.17;15.77;;;;;;;17.33;62.73;100030.56;7710713;32;39599;-74
2022/10/24 10:18:33;;;;;;;29.85;15.27;;;;;;;17.69;62.09;100024.19;7710753;32;38727;-75
2022/10/24 10:22:50;;;;;;;25.77;14.05;;;;;;;17.86;60.85;100018.00;7711552;32;36868;-74
2022/10/24 10:27:29;;;;;;;29.17;14.90;;;;;;;17.71;60.97;100021.94;7709365;32;39953;-74
2022/10/24 10:31:48;;;;;;;31.33;15.23;;;;;;;17.75;59.97;100023.75;7711651;32;40784;-74
2022/10/24 10:36:40;;;;;;;30.58;15.13;;;;;;;17.19;62.14;100039.69;7709361;32;37682;-74
2022/10/24 10:41:21;;;;;;;31.15;16.83;;;;;;;16.91;63.99;100027.13;7711002;32;36867;-73
2022/10/24 10:45:51;;;;;;;34.80;17.15;;;;;;;17.37;62.54;100020.56;7711529;32;40117;-74
2022/10/24 10:50:41;;;;;;;28.80;16.35;;;;;;;17.52;62.44;100002.84;7711415;32;39958;-74
2022/10/24 10:55:07;;;;;;;32.58;16.15;;;;;;;16.51;65.47;99991.84;7710382;32;38067;-78
2022/10/24 10:59:37;;;;;;;30.45;15.57;;;;;;;17.56;63.16;99971.59;7711426;32;37040;-73
2022/10/24 11:04:12;;;;;;;27.77;14.18;;;;;;;17.88;61.09;99971.63;7710276;32;40182;-79
2022/10/24 11:08:58;;;;;;;27.55;13.70;;;;;;;18.10;60.52;99954.22;7710223;32;39889;-78
2022/10/24 11:13:22;;;;;;;26.50;12.85;;;;;;;18.18;60.51;99945.97;7710982;32;37605;-77
2022/10/24 11:18:21;;;;;;;23.05;11.98;;;;;;;18.71;58.66;99946.94;7711125;32;38087;-74
2022/10/24 11:22:48;;;;;;;27.05;13.00;;;;;;;18.61;59.35;99950.00;7710683;32;40120;-74
2022/10/24 11:27:37;;;;;;;27.90;13.77;;;;;;;18.95;57.89;99959.47;7710744;32;40598;-73
2022/10/24 11:32:05;;;;;;;28.73;13.98;;;;;;;18.88;58.49;99961.91;7706262;32;37924;-73
2022/10/24 11:36:30;;;;;;;25.90;12.93;;;;;;;18.81;58.63;99953.28;7709658;32;37998;-73
2022/10/24 11:40:52;;;;;;;38.50;18.25;;;;;;;18.92;58.37;99955.44;7710762;32;39051;-74
2022/10/24 11:45:16;;;;;;;28.02;14.38;;;;;;;19.10;58.05;99947.94;7710283;32;40747;-73
2022/10/24 11:49:40;;;;;;;34.30;15.25;;;;;;;19.32;57.12;99962.75;7710081;32;38619;-73
2022/10/24 11:54:03;;;;;;;35.40;17.20;;;;;;;19.08;57.92;99975.09;7708849;32;37281;-74
2022/10/24 11:58:21;;;;;;;28.30;14.35;;;;;;;19.26;57.23;99988.91;7710074;32;40085;-73
2022/10/24 12:02:41;;;;;;;30.12;13.60;;;;;;;19.23;57.64;99989.56;7708767;32;40244;-73
2022/10/24 12:07:21;;;;;;;27.65;13.50;;;;;;;19.20;57.77;99976.41;7709607;32;38204;-74
2022/10/24 12:12:25;;;;;;;24.73;13.38;;;;;;;19.04;58.39;99974.12;7709671;32;37312;-74
2022/10/24 12:17:15;;;;;;;30.88;13.57;;;;;;;19.10;58.74;99949.91;7705802;32;40100;-73
2022/10/24 12:21:43;;;;;;;36.88;13.57;;;;;;;19.43;57.82;99935.56;7708214;32;40266;-77
2022/10/24 12:26:17;;;;;;;25.48;14.10;;;;;;;19.22;57.63;99939.00;7707995;32;38811;-73
2022/10/24 12:30:35;;;;;;;25.83;12.57;;;;;;;19.38;57.32;99944.84;7708789;32;37970;-74
2022/10/24 12:35:02;;;;;;;53.25;23.08;;;;;;;19.26;57.85;99942.72;7709035;32;39109;-73
2022/10/24 12:39:44;;;;;;;50.47;22.87;;;;;;;19.22;58.06;99935.44;7709196;32;40296;-77
2022/10/24 12:44:35;;;;;;;39.55;16.77;;;;;;;19.20;58.27;99913.66;7708000;32;37730;-74
2022/10/24 12:48:57;;;;;;;35.88;16.08;;;;;;;19.03;58.66;99908.16;7709044;32;38231;-71
2022/10/24 12:53:30;;;;;;;35.03;17.50;;;;;;;18.91;58.78;99909.59;7709049;32;40086;-71
2022/10/24 12:57:46;;;;;;;34.40;16.75;;;;;;;19.02;58.35;99903.75;7708953;32;39593;-73
2022/10/24 13:02:15;;;;;;;48.25;22.15;;;;;;;18.98;58.48;99903.59;7710559;32;38574;-73
2022/10/24 13:06:40;;;;;;;39.15;16.65;;;;;;;18.83;59.08;99895.78;7712291;32;37065;-73
2022/10/24 13:11:26;;;;;;;28.77;13.88;;;;;;;18.94;58.88;99897.09;7712526;32;40177;-73
2022/10/24 13:15:52;;;;;;;25.73;14.23;;;;;;;18.71;58.95;99893.63;7712377;32;39755;-73
2022/10/24 13:20:15;;;;;;;27.50;13.90;;;;;;;18.72;58.70;99896.06;7712343;32;38553;-72
2022/10/24 13:24:33;;;;;;;32.13;16.03;;;;;;;18.73;58.62;99903.22;7712198;32;37169;-71
2022/10/24 13:28:49;;;;;;;32.75;16.50;;;;;;;18.31;60.10;99900.06;7711952;32;39289;-73
2022/10/24 13:33:39;;;;;;;27.20;15.63;;;;;;;18.42;59.79;99886.81;7712000;32;39973;-72
2022/10/24 13:37:56;;;;;;;27.55;14.40;;;;;;;18.26;60.15;99893.91;7702837;32;37819;-72
2022/10/24 13:42:23;;;;;;;27.70;14.18;;;;;;;18.21;60.53;99903.13;7710910;32;37870;-73
2022/10/24 13:47:01;;;;;;;27.13;13.17;;;;;;;18.36;60.40;99894.41;7711818;32;40022;-73
2022/10/24 13:51:27;;;;;;;26.80;14.93;;;;;;;18.40;60.72;99897.31;7711625;32;39910;-73
2022/10/24 13:55:49;;;;;;;25.12;13.60;;;;;;;18.52;59.90;99871.84;7710364;32;37948;-73
2022/10/24 14:00:17;;;;;;;32.20;14.40;;;;;;;18.58;60.46;99873.34;7711847;32;37183;-72
2022/10/24 14:04:34;;;;;;;29.10;14.25;;;;;;;18.33;61.05;99877.66;7711644;32;39088;-71
2022/10/24 14:08:52;;;;;;;24.50;13.02;;;;;;;18.64;60.08;99872.03;7711635;32;39616;-73
2022/10/24 14:13:22;;;;;;;27.85;14.45;;;;;;;18.47;60.18;99872.00;7710289;32;38841;-72
2022/10/24 14:17:38;;;;;;;33.90;15.20;;;;;;;18.53;60.06;99881.78;7710126;32;37567;-73
2022/10/24 14:21:54;;;;;;;31.30;14.52;;;;;;;18.33;60.75;99883.19;7711462;32;39512;-73
2022/10/24 14:26:21;;;;;;;35.03;15.23;;;;;;;18.30;60.84;99890.19;7711199;32;40209;-73
2022/10/24 14:30:37;;;;;;;30.62;15.95;;;;;;;18.38;60.42;99889.41;7710138;32;37962;-73
2022/10/24 14:34:55;;;;;;;27.98;13.90;;;;;;;18.40;60.16;99875.25;7709942;32;37156;-72
2022/10/24 14:39:22;;;;;;;27.95;14.82;;;;;;;18.59;59.57;99874.94;7698226;32;38461;-73
2022/10/24 14:43:40;;;;;;;28.40;14.30;;;;;;;18.48;59.83;99876.41;7698814;32;40018;-73
2022/10/24 14:47:59;;;;;;;28.80;15.13;;;;;;;18.04;61.48;99881.00;7711325;32;37895;-73
2022/10/24 14:52:31;;;;;;;31.62;14.65;;;;;;;18.11;61.11;99895.13;7697649;32;37901;-72
2022/10/24 14:56:48;;;;;;;34.22;14.38;;;;;;;18.02;61.53;99895.94;7711165;32;39328;-73
2022/10/24 15:01:04;;;;;;;31.37;14.30;;;;;;;18.28;60.75;99891.63;7697582;32;39685;-73
2022/10/24 15:05:23;;;;;;;29.98;15.25;;;;;;;18.12;61.17;99877.47;7697681;32;38183;-73
2022/10/24 15:10:00;;;;;;;28.77;15.57;;;;;;;18.05;61.10;99882.62;7711169;32;36964;-74
2022/10/24 15:14:35;;;;;;;34.30;16.15;;;;;;;18.19;60.51;99872.28;7710996;32;39188;-73
2022/10/24 15:18:57;;;;;;;27.52;14.60;;;;;;;18.14;60.26;99864.16;7710851;32;39898;-74
2022/10/24 15:23:37;;;;;;;36.50;16.30;;;;;;;18.16;60.06;99861.88;7696858;32;37947;-73
2022/10/24 15:27:58;;;;;;;34.50;16.42;;;;;;;18.09;60.50;99858.78;7710644;32;37228;-74
2022/10/24 15:32:14;;;;;;;29.10;15.80;;;;;;;17.83;61.28;99865.84;7710548;32;39387;-73
2022/10/24 15:36:34;;;;;;;31.67;15.52;;;;;;;17.70;61.91;99865.94;7683006;32;39799;-72
2022/10/24 15:40:52;;;;;;;27.50;15.93;;;;;;;17.53;62.58;99872.97;7683180;32;38089;-73
2022/10/24 15:45:16;;;;;;;33.85;16.52;;;;;;;17.70;61.96;99854.91;7683091;32;38053;-73
2022/10/24 15:49:34;;;;;;;35.80;16.48;;;;;;;17.75;62.09;99863.03;7689323;32;40483;-73
2022/10/24 15:53:51;;;;;;;34.45;17.85;;;;;;;17.46;63.03;99862.41;7683127;32;38867;-72
2022/10/24 15:58:13;;;;;;;32.92;18.17;;;;;;;17.74;61.91;99869.69;7684598;32;38989;-72
2022/10/24 16:02:29;;;;;;;36.20;17.58;;;;;;;17.45;62.74;99870.97;7683535;32;36174;-73
2022/10/24 16:06:45;;;;;;;41.33;17.85;;;;;;;17.36;63.05;99878.41;7689222;32;40029;-71
2022/10/24 16:11:01;;;;;;;33.67;17.48;;;;;;;17.55;62.41;99890.00;7691750;32;40773;-75
2022/10/24 16:15:27;;;;;;;37.93;18.43;;;;;;;17.52;62.64;99887.88;7696302;32;38070;-72
2022/10/24 16:19:43;;;;;;;33.53;15.85;;;;;;;17.49;62.58;99882.19;7695736;32;36825;-73
2022/10/24 16:24:00;;;;;;;36.20;16.80;;;;;;;17.36;63.14;99870.94;7707927;32;39416;-72
2022/10/24 16:28:17;;;;;;;37.80;19.02;;;;;;;17.45;62.84;99871.81;7708477;32;39971;-73
2022/10/24 16:32:38;;;;;;;34.60;17.58;;;;;;;17.33;63.12;99879.03;7695452;32;37636;-73
2022/10/24 16:36:54;;;;;;;36.38;17.30;;;;;;;17.20;63.31;99870.53;7684129;32;37833;-76
2022/10/24 16:41:15;;;;;;;38.35;17.50;;;;;;;17.36;62.71;99881.16;7695402;32;38387;-74
2022/10/24 16:45:32;;;;;;;31.80;16.58;;;;;;;17.43;62.36;99889.78;7712588;32;42266;-73
2022/10/24 16:49:48;;;;;;;38.80;17.77;;;;;;;17.49;62.06;99890.47;7712051;32;37928;-73
2022/10/24 16:54:04;;;;;;;36.00;17.95;;;;;;;17.67;61.50;99883.91;7698508;32;37191;-74
2022/10/24 16:58:21;;;;;;;42.08;17.80;;;;;;;17.37;62.27;99883.59;7685415;32;39977;-73
2022/10/24 17:02:37;;;;;;;39.42;18.40;;;;;;;17.45;62.18;99893.03;7685755;32;40173;-73
2022/10/24 17:06:54;;;;;;;37.75;19.50;;;;;;;17.23;62.72;99891.09;7701354;32;38782;-73
2022/10/24 17:11:10;;;;;;;41.50;21.15;;;;;;;17.37;62.41;99891.88;7701620;32;37423;-74
2022/10/24 17:15:46;;;;;;;39.75;21.15;;;;;;;17.21;63.16;99887.84;7704019;32;39341;-75
2022/10/24 17:20:05;;;;;;;43.40;22.50;;;;;;;17.23;63.53;99894.69;7698014;32;39540;-75
2022/10/24 17:24:24;;;;;;;44.38;23.30;;;;;;;17.39;63.10;99883.28;7691688;32;37760;-75
2022/10/24 17:28:40;;;;;;;40.38;22.77;;;;;;;17.21;63.68;99871.31;7705415;32;37807;-74
2022/10/24 17:32:57;;;;;;;45.03;21.77;;;;;;;16.86;64.88;99871.87;7702286;32;39450;-73
2022/10/24 17:37:36;;;;;;;43.28;20.37;;;;;;;17.07;64.09;99872.22;7684751;32;39955;-71
2022/10/24 17:41:53;;;;;;;36.42;19.60;;;;;;;17.11;63.88;99877.94;7683027;32;37872;-72
2022/10/24 17:46:12;;;;;;;39.15;19.33;;;;;;;17.06;63.79;99880.81;7685209;32;38050;-71
2022/10/24 17:50:29;;;;;;;42.17;19.87;;;;;;;16.69;65.11;99874.47;7685297;32;40159;-72
2022/10/24 17:54:45;;;;;;;38.60;18.60;;;;;;;16.84;64.41;99885.16;7688024;32;39914;-73
2022/10/24 17:59:01;;;;;;;37.38;18.55;;;;;;;17.20;62.86;99870.53;7696139;32;37956;-74
2022/10/24 18:03:18;;;;;;;44.85;19.62;;;;;;;17.28;62.66;99871.69;7700965;32;37281;-74
2022/10/24 18:07:36;;;;;;;43.47;18.85;;;;;;;17.24;62.77;99859.69;7688510;32;39458;-74
2022/10/24 18:11:52;;;;;;;39.30;19.70;;;;;;;17.16;62.96;99875.03;7696391;32;40533;-75
2022/10/24 18:16:11;;;;;;;41.35;19.35;;;;;;;17.33;62.50;99862.50;7689207;32;37722;-74
2022/10/24 18:20:31;;;;;;;41.70;19.30;;;;;;;17.27;62.59;99870.87;7711835;32;37908;-75
2022/10/24 18:24:47;;;;;;;44.78;20.08;;;;;;;17.25;62.75;99877.84;7711133;32;39273;-75
2022/10/24 18:29:03;;;;;;;43.72;19.40;;;;;;;17.13;62.88;99870.16;7690595;32;37891;-74
2022/10/24 18:33:19;;;;;;;38.80;18.98;;;;;;;16.92;63.76;99880.03;7685514;32;38106;-74
2022/10/24 18:37:36;;;;;;;44.13;18.87;;;;;;;17.14;63.03;99841.47;7684958;32;38320;-74
2022/10/24 18:41:56;;;;;;;39.40;19.83;;;;;;;16.71;64.22;99811.66;7691499;32;38835;-75
2022/10/24 18:46:12;;;;;;;40.85;19.10;;;;;;;16.57;64.87;99816.41;7705857;32;40618;-74
2022/10/24 18:50:29;;;;;;;39.70;19.15;;;;;;;16.51;65.16;99833.03;7680309;32;38060;-75
2022/10/24 18:55:23;;;;;;;44.03;20.60;;;;;;;16.42;65.08;99834.91;7686599;32;37331;-75
2022/10/24 18:59:40;;;;;;;39.72;18.87;;;;;;;16.64;64.26;99822.28;7709403;32;39523;-75
2022/10/24 19:03:57;;;;;;;44.38;21.27;;;;;;;16.42;64.30;99834.06;7686608;32;39816;-74
2022/10/24 19:08:15;;;;;;;50.40;21.15;;;;;;;16.48;63.97;99822.66;7671198;32;37735;-75
2022/10/24 19:12:32;;;;;;;42.45;20.05;;;;;;;16.36;64.82;99825.13;7683119;32;38052;-75
2022/10/24 19:16:50;;;;;;;45.50;21.55;;;;;;;16.15;65.62;99814.59;7684283;32;40115;-75
2022/10/24 19:21:07;;;;;;;50.05;21.98;;;;;;;16.04;66.21;99806.84;7681264;32;40047;-75
2022/10/24 19:25:23;;;;;;;53.55;22.30;;;;;;;16.48;64.72;99789.63;7683325;32;38810;-75
2022/10/24 19:29:40;;;;;;;45.33;21.73;;;;;;;16.44;65.07;99796.09;7706917;32;37381;-74
2022/10/24 19:33:56;;;;;;;49.60;21.95;;;;;;;16.49;64.97;99791.28;7709738;32;39751;-72
2022/10/24 19:38:16;;;;;;;43.00;21.05;;;;;;;16.12;65.97;99792.38;7703739;32;39716;-75
2022/10/24 19:42:36;;;;;;;52.58;22.67;;;;;;;16.37;65.09;99796.50;7709382;32;38603;-74
2022/10/24 19:46:53;;;;;;;42.62;22.33;;;;;;;16.52;64.67;99795.31;7709476;32;37271;-74
2022/10/24 19:51:11;;;;;;;46.05;21.33;;;;;;;16.51;64.84;99791.75;7709049;32;39438;-75
2022/10/24 19:55:28;;;;;;;48.70;20.90;;;;;;;16.58;64.57;99791.34;7702905;32;39803;-72
2022/10/24 19:59:44;;;;;;;49.00;21.10;;;;;;;16.52;64.78;99776.91;7706306;32;37699;-72